H201 — WDJ4540 — position and weather

sailwx.info

Track history (hours):
 
Tides and Currents Weather Stations Pressure Air Temp Water Temp Dewpoint Dewpoint Depression Visibility Wind Speed Wind Dir Waves Ship Positions

H201

Owner: HNY Ferry Fleet, New York, NY. More information available from US FCC via Universal Licensing System and Coast Guard Vessel Documentation Center.

Last reported at 2017-Nov-19 21:31 UTC. Time now 2017-Nov-19 21:49 UTC.
Position N 40°42' W 073°58'.

Length 26 m; draft 1.9 m.

Type: Passenger vessel. MMSI: 367778670.

Date/timePositionNaut miles runAvg speedWind from/ knotsBaromVisibWave heightAir tempDewpointWater temp
2017-Nov-19 21:31N 40°42' W 073°58'0 0.0
2017-Nov-18 02:37N 40°42' W 073°58'0 0.8
2017-Nov-18 02:30N 40°42' W 073°58'2 3.0
2017-Nov-18 02:00N 40°42' W 074°00'1 2.7
2017-Nov-18 01:30N 40°41' W 074°01'2 4.0
2017-Nov-18 01:00N 40°39' W 074°02'4 7.1
2017-Nov-18 00:30N 40°42' W 073°60'0 0.7
2017-Nov-18 00:01N 40°42' W 074°00'4 7.0
2017-Nov-17 23:31N 40°39' W 074°02'2 4.1
2017-Nov-17 23:01N 40°41' W 074°01'2 3.1
2017-Nov-17 22:31N 40°42' W 073°60'4 7.4
2017-Nov-17 22:01N 40°39' W 074°02'2 4.3
2017-Nov-17 21:30N 40°41' W 074°01'1 2.6
2017-Nov-17 21:00N 40°42' W 074°00'2 3.2
2017-Nov-17 20:30N 40°42' W 073°58'0 0.0
2017-Nov-17 20:00N 40°42' W 073°58'0 0.0
2017-Nov-17 19:31N 40°42' W 073°58'0 0.0
2017-Nov-17 19:00N 40°42' W 073°58'2 4.4
2017-Nov-17 18:31N 40°41' W 074°01'1 3.0
2017-Nov-17 18:00N 40°42' W 073°60'3 5.4
2017-Nov-17 17:30N 40°45' W 073°58'1 2.3
2017-Nov-17 17:01N 40°45' W 073°57'3 5.6
2017-Nov-17 16:31N 40°43' W 073°58'2 3.3
2017-Nov-17 16:00N 40°42' W 074°00'2 3.0
2017-Nov-17 15:30N 40°42' W 073°58'5 8.9
2017-Nov-17 15:00N 40°46' W 073°56'2 4.7
2017-Nov-17 14:30N 40°45' W 073°58'0 0.1
2017-Nov-17 14:00N 40°45' W 073°58'2 4.6
2017-Nov-17 13:30N 40°46' W 073°56'2 3.5
2017-Nov-17 13:00N 40°45' W 073°57'3 5.7
2017-Nov-17 12:31N 40°42' W 073°59'5 9.1
2017-Nov-17 12:00N 40°46' W 073°56'5 9.2
2017-Nov-17 11:31N 40°42' W 073°58'0 0.0
2017-Nov-17 04:04N 40°42' W 073°58'0 0.3
2017-Nov-17 04:01N 40°42' W 073°58'4 8.2
2017-Nov-17 03:31N 40°39' W 074°02'4 7.4
2017-Nov-17 03:01N 40°42' W 073°60'0 0.9
2017-Nov-17 02:30N 40°42' W 074°00'4 7.7
2017-Nov-17 02:01N 40°38' W 074°02'4 7.1
2017-Nov-17 01:30N 40°42' W 074°00'1 1.3
2017-Nov-17 01:00N 40°42' W 074°00'4 7.1
2017-Nov-17 00:30N 40°39' W 074°02'2 4.3
2017-Nov-17 00:01N 40°41' W 074°01'1 2.7
2017-Nov-16 23:31N 40°42' W 074°00'4 7.1
2017-Nov-16 23:00N 40°39' W 074°02'2 4.4
2017-Nov-16 22:31N 40°41' W 074°01'1 2.7
2017-Nov-16 22:01N 40°42' W 074°00'3 6.9
2017-Nov-16 21:31N 40°39' W 074°02'2 4.4
2017-Nov-16 21:01N 40°41' W 074°01'1 2.6
2017-Nov-16 20:30N 40°42' W 074°00'4 7.1
2017-Nov-16 20:01N 40°39' W 074°02'0 0.6
2017-Nov-16 19:30N 40°39' W 074°02'3 6.9
2017-Nov-16 19:00N 40°42' W 073°60'0 0.6
2017-Nov-16 18:30N 40°42' W 074°00'4 7.9
2017-Nov-16 18:00N 40°38' W 074°02'4 7.0
2017-Nov-16 17:30N 40°42' W 074°00'1 1.3
2017-Nov-16 17:00N 40°42' W 074°00'4 7.1
2017-Nov-16 16:30N 40°39' W 074°02'2 4.6
2017-Nov-16 16:00N 40°41' W 074°01'1 2.5
2017-Nov-16 15:30N 40°42' W 074°00'1 1.1
2017-Nov-16 15:01N 40°42' W 074°00'4 7.1
2017-Nov-16 14:30N 40°38' W 074°02'4 7.0
2017-Nov-16 14:00N 40°42' W 074°00'0 0.1
2017-Nov-16 13:31N 40°42' W 074°00'4 7.1
2017-Nov-16 13:01N 40°38' W 074°02'4 7.1
2017-Nov-16 12:31N 40°42' W 074°00'0 0.0
2017-Nov-16 12:00N 40°42' W 074°00'4 7.1
2017-Nov-16 11:31N 40°38' W 074°02'5 9.4
2017-Nov-16 11:00N 40°42' W 073°58'0 0.0
2017-Nov-16 03:41N 40°42' W 073°58'1 7.3
2017-Nov-16 03:31N 40°42' W 074°00'4 7.9
2017-Nov-16 03:00N 40°46' W 073°57'0 0.0
2017-Nov-16 02:30N 40°46' W 073°57'4 7.6
2017-Nov-16 02:00N 40°42' W 073°60'3 6.2
2017-Nov-16 01:30N 40°45' W 073°57'2 3.3
2017-Nov-16 01:00N 40°46' W 073°56'2 4.7
2017-Nov-16 00:30N 40°45' W 073°58'0 0.3
2017-Nov-16 00:00N 40°45' W 073°58'2 4.5
2017-Nov-15 23:30N 40°46' W 073°56'2 3.5
2017-Nov-15 23:00N 40°45' W 073°57'3 6.7
2017-Nov-15 22:31N 40°42' W 074°00'5 8.8
2017-Nov-15 21:59N 40°46' W 073°57'1 1.2
2017-Nov-15 21:30N 40°45' W 073°57'4 8.1
2017-Nov-15 21:01N 40°42' W 074°00'3 6.8
2017-Nov-15 20:30N 40°45' W 073°57'2 3.4
2017-Nov-15 20:00N 40°46' W 073°56'2 5.0
2017-Nov-15 19:30N 40°44' W 073°58'0 0.6
2017-Nov-15 19:00N 40°45' W 073°58'2 4.5
2017-Nov-15 18:30N 40°46' W 073°56'2 3.5
2017-Nov-15 18:00N 40°45' W 073°57'3 6.2
2017-Nov-15 17:30N 40°42' W 073°60'4 7.5
2017-Nov-15 17:01N 40°45' W 073°57'0 0.0
2017-Nov-15 16:31N 40°45' W 073°57'4 7.1
2017-Nov-15 16:01N 40°42' W 073°59'3 5.9
2017-Nov-15 15:30N 40°45' W 073°57'2 3.3
2017-Nov-15 15:00N 40°46' W 073°56'1 1.1
2017-Nov-15 14:30N 40°46' W 073°57'3 6.3
2017-Nov-15 14:00N 40°43' W 073°58'2 3.3
2017-Nov-15 13:30N 40°45' W 073°58'2 4.3
2017-Nov-15 13:00N 40°46' W 073°56'2 4.6
2017-Nov-15 12:30N 40°45' W 073°58'1 2.5
2017-Nov-15 12:01N 40°43' W 073°58'3 6.4
2017-Nov-15 11:30N 40°46' W 073°56'5 9.2
2017-Nov-15 11:00N 40°42' W 073°58'0 0.0
2017-Nov-15 10:30N 40°42' W 073°58'0 0.0
2017-Nov-15 04:08N 40°42' W 073°58'0 0.0
2017-Nov-15 04:01N 40°42' W 073°58'4 8.2
2017-Nov-15 03:31N 40°39' W 074°02'4 7.4
2017-Nov-15 03:00N 40°42' W 073°60'0 0.7
2017-Nov-15 02:31N 40°42' W 074°00'4 7.8
2017-Nov-15 02:00N 40°38' W 074°02'4 7.1
2017-Nov-15 01:30N 40°42' W 074°00'1 1.3
2017-Nov-15 01:01N 40°42' W 074°00'3 7.0
2017-Nov-15 00:30N 40°39' W 074°02'2 4.5
2017-Nov-15 00:00N 40°41' W 074°01'1 2.5
2017-Nov-14 23:31N 40°42' W 074°00'4 7.0
2017-Nov-14 23:01N 40°39' W 074°02'2 4.4
2017-Nov-14 22:30N 40°41' W 074°01'1 2.7
2017-Nov-14 22:00N 40°42' W 074°00'3 6.9
2017-Nov-14 21:31N 40°39' W 074°02'2 4.3
2017-Nov-14 21:00N 40°41' W 074°01'1 2.6
2017-Nov-14 20:31N 40°42' W 074°00'1 2.7
2017-Nov-14 20:00N 40°41' W 074°01'2 4.2
2017-Nov-14 19:31N 40°39' W 074°02'4 7.3
2017-Nov-14 19:01N 40°42' W 073°60'1 1.1
2017-Nov-14 18:31N 40°42' W 074°00'4 7.4
2017-Nov-14 18:00N 40°38' W 074°02'4 7.0
2017-Nov-14 17:30N 40°42' W 074°00'1 1.3
2017-Nov-14 17:00N 40°42' W 074°00'3 6.5
2017-Nov-14 16:30N 40°39' W 074°02'2 4.1
2017-Nov-14 16:01N 40°41' W 074°01'1 2.4
2017-Nov-14 15:30N 40°42' W 074°00'0 0.7
2017-Nov-14 15:01N 40°42' W 074°00'4 7.6
2017-Nov-14 14:30N 40°38' W 074°02'4 7.1
2017-Nov-14 14:00N 40°42' W 074°00'0 0.0
2017-Nov-14 13:31N 40°42' W 074°00'4 7.1
2017-Nov-14 13:01N 40°38' W 074°02'4 7.1
2017-Nov-14 12:30N 40°42' W 074°00'0 0.2
2017-Nov-14 12:01N 40°42' W 074°00'4 7.1
2017-Nov-14 11:30N 40°38' W 074°02'5 9.4
2017-Nov-14 11:00N 40°42' W 073°58'0 0.0
2017-Nov-14 10:30N 40°42' W 073°58'0 0.0
2017-Nov-14 04:02N 40°42' W 073°58'0 7.0
2017-Nov-14 04:01N 40°42' W 073°59'4 8.5
2017-Nov-14 03:30N 40°39' W 074°02'4 7.4
2017-Nov-14 03:00N 40°42' W 073°60'1 1.5
2017-Nov-14 02:30N 40°42' W 074°00'4 7.1
2017-Nov-14 02:01N 40°38' W 074°02'4 7.1
2017-Nov-14 01:30N 40°42' W 074°00'1 1.5
2017-Nov-14 01:01N 40°42' W 073°60'4 7.1
2017-Nov-14 00:30N 40°39' W 074°02'2 4.1
2017-Nov-14 00:01N 40°41' W 074°01'1 2.7
2017-Nov-13 23:31N 40°42' W 074°00'4 7.0
2017-Nov-13 23:00N 40°39' W 074°02'2 4.6
2017-Nov-13 22:30N 40°41' W 074°01'1 2.5
2017-Nov-13 22:01N 40°42' W 074°00'1 0.1
2017-Nov-13 02:01N 40°41' W 074°01'2 4.5
2017-Nov-13 01:30N 40°39' W 074°02'3 6.6
2017-Nov-13 01:01N 40°42' W 074°00'1 1.7
2017-Nov-13 00:31N 40°41' W 074°01'3 6.0
2017-Nov-13 00:01N 40°38' W 074°02'3 6.1
2017-Nov-12 23:31N 40°41' W 074°01'1 2.4
2017-Nov-12 23:00N 40°42' W 073°60'4 7.4
2017-Nov-12 22:30N 40°39' W 074°02'2 4.2
2017-Nov-12 22:01N 40°41' W 074°01'1 2.9
2017-Nov-12 21:31N 40°42' W 074°00'1 2.7
2017-Nov-12 21:01N 40°41' W 074°01'1 2.9
2017-Nov-12 20:30N 40°40' W 074°02'3 6.1
2017-Nov-12 20:01N 40°42' W 073°60'0 0.9
2017-Nov-12 19:30N 40°42' W 074°00'2 3.1
2017-Nov-12 19:00N 40°42' W 073°58'0 0.0
2017-Nov-11 15:55N 40°42' W 073°58'1 2.6
2017-Nov-11 15:30N 40°42' W 073°60'4 7.4
2017-Nov-11 15:00N 40°39' W 074°02'2 4.7
2017-Nov-11 14:31N 40°41' W 074°01'1 2.4
2017-Nov-11 14:01N 40°42' W 074°00'2 3.6
2017-Nov-11 13:31N 40°41' W 074°01'2 3.6
2017-Nov-11 13:01N 40°39' W 074°02'4 7.3
2017-Nov-11 12:30N 40°42' W 073°60'1 2.7
2017-Nov-11 12:00N 40°41' W 074°01'3 5.8
2017-Nov-11 11:31N 40°38' W 074°02'5 9.4
2017-Nov-11 11:00N 40°42' W 073°58'0 0.0
2017-Nov-11 10:31N 40°42' W 073°58'0 0.0
2017-Nov-11 03:47N 40°42' W 073°58'2 5.8
2017-Nov-11 03:31N 40°42' W 074°00'4 8.1
2017-Nov-11 03:00N 40°45' W 073°57'0 0.3
2017-Nov-11 02:30N 40°46' W 073°57'4 7.6
2017-Nov-11 02:00N 40°42' W 073°60'3 6.3
2017-Nov-11 01:30N 40°45' W 073°57'2 3.4
2017-Nov-11 01:00N 40°46' W 073°56'2 4.8
2017-Nov-11 00:31N 40°44' W 073°58'0 0.2
2017-Nov-11 00:00N 40°45' W 073°58'2 4.7
2017-Nov-10 23:30N 40°46' W 073°56'2 3.5
2017-Nov-10 23:00N 40°45' W 073°57'3 6.2
2017-Nov-10 22:31N 40°42' W 073°60'4 7.3
2017-Nov-10 22:00N 40°45' W 073°57'0 0.3
2017-Nov-10 21:30N 40°46' W 073°57'4 7.6
2017-Nov-10 21:00N 40°42' W 073°60'3 6.2
2017-Nov-10 20:30N 40°45' W 073°57'2 3.4
2017-Nov-10 20:00N 40°46' W 073°56'2 4.6
2017-Nov-10 19:30N 40°45' W 073°58'0 0.1
2017-Nov-10 19:01N 40°45' W 073°58'2 4.3
2017-Nov-10 18:29N 40°46' W 073°56'2 3.5
2017-Nov-10 18:00N 40°45' W 073°57'3 6.8
2017-Nov-10 17:31N 40°42' W 074°00'4 8.4
2017-Nov-10 17:00N 40°46' W 073°57'0 0.4
2017-Nov-10 16:30N 40°45' W 073°57'4 7.1
2017-Nov-10 16:00N 40°42' W 073°59'3 5.8
2017-Nov-10 15:30N 40°45' W 073°57'2 3.3
2017-Nov-10 15:00N 40°46' W 073°56'1 1.2
2017-Nov-10 14:30N 40°46' W 073°57'3 5.3
2017-Nov-10 14:01N 40°44' W 073°58'1 2.4
2017-Nov-10 13:31N 40°45' W 073°58'2 4.2
2017-Nov-10 13:00N 40°46' W 073°56'2 4.0
2017-Nov-10 12:31N 40°45' W 073°58'0 0.9
2017-Nov-10 12:00N 40°44' W 073°58'2 4.8
2017-Nov-10 11:30N 40°46' W 073°56'5 9.2
2017-Nov-10 11:00N 40°42' W 073°58'0 0.0
2017-Nov-10 04:07N 40°42' W 073°58'0 0.0
2017-Nov-10 04:00N 40°42' W 073°58'4 8.2
2017-Nov-10 03:31N 40°39' W 074°02'4 7.3
2017-Nov-10 03:00N 40°42' W 073°60'1 1.1
2017-Nov-10 02:31N 40°42' W 074°00'3 6.3
2017-Nov-10 02:00N 40°39' W 074°02'3 5.9
2017-Nov-10 01:30N 40°42' W 074°00'1 1.3
2017-Nov-10 01:00N 40°42' W 074°00'3 7.0
2017-Nov-10 00:30N 40°39' W 074°02'2 4.4
2017-Nov-10 00:00N 40°41' W 074°01'1 2.7
2017-Nov-09 23:31N 40°42' W 073°60'4 7.1
2017-Nov-09 23:00N 40°39' W 074°02'2 4.5
2017-Nov-09 22:30N 40°41' W 074°01'1 2.6
2017-Nov-09 22:01N 40°42' W 074°00'  
Track history (hours):
 
Tides and Currents Weather Stations Pressure Air Temp Water Temp Dewpoint Dewpoint Depression Visibility Wind Speed Wind Dir Waves Ship Positions

H201

Owner: HNY Ferry Fleet, New York, NY. More information available from US FCC via Universal Licensing System and Coast Guard Vessel Documentation Center.

Last reported at 2017-Nov-19 21:31 UTC. Time now 2017-Nov-19 21:49 UTC.
Position N 40°42' W 073°58'.

Length 26 m; draft 1.9 m.

Type: Passenger vessel. MMSI: 367778670.

Date/timePositionNaut miles runAvg speedWind from/ knotsBaromVisibWave heightAir tempDewpointWater temp
2017-Nov-19 21:31N 40°42' W 073°58'0 0.0
2017-Nov-18 02:37N 40°42' W 073°58'0 0.8
2017-Nov-18 02:30N 40°42' W 073°58'2 3.0
2017-Nov-18 02:00N 40°42' W 074°00'1 2.7
2017-Nov-18 01:30N 40°41' W 074°01'2 4.0
2017-Nov-18 01:00N 40°39' W 074°02'4 7.1
2017-Nov-18 00:30N 40°42' W 073°60'0 0.7
2017-Nov-18 00:01N 40°42' W 074°00'4 7.0
2017-Nov-17 23:31N 40°39' W 074°02'2 4.1
2017-Nov-17 23:01N 40°41' W 074°01'2 3.1
2017-Nov-17 22:31N 40°42' W 073°60'4 7.4
2017-Nov-17 22:01N 40°39' W 074°02'2 4.3
2017-Nov-17 21:30N 40°41' W 074°01'1 2.6
2017-Nov-17 21:00N 40°42' W 074°00'2 3.2
2017-Nov-17 20:30N 40°42' W 073°58'0 0.0
2017-Nov-17 20:00N 40°42' W 073°58'0 0.0
2017-Nov-17 19:31N 40°42' W 073°58'0 0.0
2017-Nov-17 19:00N 40°42' W 073°58'2 4.4
2017-Nov-17 18:31N 40°41' W 074°01'1 3.0
2017-Nov-17 18:00N 40°42' W 073°60'3 5.4
2017-Nov-17 17:30N 40°45' W 073°58'1 2.3
2017-Nov-17 17:01N 40°45' W 073°57'3 5.6
2017-Nov-17 16:31N 40°43' W 073°58'2 3.3
2017-Nov-17 16:00N 40°42' W 074°00'2 3.0
2017-Nov-17 15:30N 40°42' W 073°58'5 8.9
2017-Nov-17 15:00N 40°46' W 073°56'2 4.7
2017-Nov-17 14:30N 40°45' W 073°58'0 0.1
2017-Nov-17 14:00N 40°45' W 073°58'2 4.6
2017-Nov-17 13:30N 40°46' W 073°56'2 3.5
2017-Nov-17 13:00N 40°45' W 073°57'3 5.7
2017-Nov-17 12:31N 40°42' W 073°59'5 9.1
2017-Nov-17 12:00N 40°46' W 073°56'5 9.2
2017-Nov-17 11:31N 40°42' W 073°58'0 0.0
2017-Nov-17 04:04N 40°42' W 073°58'0 0.3
2017-Nov-17 04:01N 40°42' W 073°58'4 8.2
2017-Nov-17 03:31N 40°39' W 074°02'4 7.4
2017-Nov-17 03:01N 40°42' W 073°60'0 0.9
2017-Nov-17 02:30N 40°42' W 074°00'4 7.7
2017-Nov-17 02:01N 40°38' W 074°02'4 7.1
2017-Nov-17 01:30N 40°42' W 074°00'1 1.3
2017-Nov-17 01:00N 40°42' W 074°00'4 7.1
2017-Nov-17 00:30N 40°39' W 074°02'2 4.3
2017-Nov-17 00:01N 40°41' W 074°01'1 2.7
2017-Nov-16 23:31N 40°42' W 074°00'4 7.1
2017-Nov-16 23:00N 40°39' W 074°02'2 4.4
2017-Nov-16 22:31N 40°41' W 074°01'1 2.7
2017-Nov-16 22:01N 40°42' W 074°00'3 6.9
2017-Nov-16 21:31N 40°39' W 074°02'2 4.4
2017-Nov-16 21:01N 40°41' W 074°01'1 2.6
2017-Nov-16 20:30N 40°42' W 074°00'4 7.1
2017-Nov-16 20:01N 40°39' W 074°02'0 0.6
2017-Nov-16 19:30N 40°39' W 074°02'3 6.9
2017-Nov-16 19:00N 40°42' W 073°60'0 0.6
2017-Nov-16 18:30N 40°42' W 074°00'4 7.9
2017-Nov-16 18:00N 40°38' W 074°02'4 7.0
2017-Nov-16 17:30N 40°42' W 074°00'1 1.3
2017-Nov-16 17:00N 40°42' W 074°00'4 7.1
2017-Nov-16 16:30N 40°39' W 074°02'2 4.6
2017-Nov-16 16:00N 40°41' W 074°01'1 2.5
2017-Nov-16 15:30N 40°42' W 074°00'1 1.1
2017-Nov-16 15:01N 40°42' W 074°00'4 7.1
2017-Nov-16 14:30N 40°38' W 074°02'4 7.0
2017-Nov-16 14:00N 40°42' W 074°00'0 0.1
2017-Nov-16 13:31N 40°42' W 074°00'4 7.1
2017-Nov-16 13:01N 40°38' W 074°02'4 7.1
2017-Nov-16 12:31N 40°42' W 074°00'0 0.0
2017-Nov-16 12:00N 40°42' W 074°00'4 7.1
2017-Nov-16 11:31N 40°38' W 074°02'5 9.4
2017-Nov-16 11:00N 40°42' W 073°58'0 0.0
2017-Nov-16 03:41N 40°42' W 073°58'1 7.3
2017-Nov-16 03:31N 40°42' W 074°00'4 7.9
2017-Nov-16 03:00N 40°46' W 073°57'0 0.0
2017-Nov-16 02:30N 40°46' W 073°57'4 7.6
2017-Nov-16 02:00N 40°42' W 073°60'3 6.2
2017-Nov-16 01:30N 40°45' W 073°57'2 3.3
2017-Nov-16 01:00N 40°46' W 073°56'2 4.7
2017-Nov-16 00:30N 40°45' W 073°58'0 0.3
2017-Nov-16 00:00N 40°45' W 073°58'2 4.5
2017-Nov-15 23:30N 40°46' W 073°56'2 3.5
2017-Nov-15 23:00N 40°45' W 073°57'3 6.7
2017-Nov-15 22:31N 40°42' W 074°00'5 8.8
2017-Nov-15 21:59N 40°46' W 073°57'1 1.2
2017-Nov-15 21:30N 40°45' W 073°57'4 8.1
2017-Nov-15 21:01N 40°42' W 074°00'3 6.8
2017-Nov-15 20:30N 40°45' W 073°57'2 3.4
2017-Nov-15 20:00N 40°46' W 073°56'2 5.0
2017-Nov-15 19:30N 40°44' W 073°58'0 0.6
2017-Nov-15 19:00N 40°45' W 073°58'2 4.5
2017-Nov-15 18:30N 40°46' W 073°56'2 3.5
2017-Nov-15 18:00N 40°45' W 073°57'3 6.2
2017-Nov-15 17:30N 40°42' W 073°60'4 7.5
2017-Nov-15 17:01N 40°45' W 073°57'0 0.0
2017-Nov-15 16:31N 40°45' W 073°57'4 7.1
2017-Nov-15 16:01N 40°42' W 073°59'3 5.9
2017-Nov-15 15:30N 40°45' W 073°57'2 3.3
2017-Nov-15 15:00N 40°46' W 073°56'1 1.1
2017-Nov-15 14:30N 40°46' W 073°57'3 6.3
2017-Nov-15 14:00N 40°43' W 073°58'2 3.3
2017-Nov-15 13:30N 40°45' W 073°58'2 4.3
2017-Nov-15 13:00N 40°46' W 073°56'2 4.6
2017-Nov-15 12:30N 40°45' W 073°58'1 2.5
2017-Nov-15 12:01N 40°43' W 073°58'3 6.4
2017-Nov-15 11:30N 40°46' W 073°56'5 9.2
2017-Nov-15 11:00N 40°42' W 073°58'0 0.0
2017-Nov-15 10:30N 40°42' W 073°58'0 0.0
2017-Nov-15 04:08N 40°42' W 073°58'0 0.0
2017-Nov-15 04:01N 40°42' W 073°58'4 8.2
2017-Nov-15 03:31N 40°39' W 074°02'4 7.4
2017-Nov-15 03:00N 40°42' W 073°60'0 0.7
2017-Nov-15 02:31N 40°42' W 074°00'4 7.8
2017-Nov-15 02:00N 40°38' W 074°02'4 7.1
2017-Nov-15 01:30N 40°42' W 074°00'1 1.3
2017-Nov-15 01:01N 40°42' W 074°00'3 7.0
2017-Nov-15 00:30N 40°39' W 074°02'2 4.5
2017-Nov-15 00:00N 40°41' W 074°01'1 2.5
2017-Nov-14 23:31N 40°42' W 074°00'4 7.0
2017-Nov-14 23:01N 40°39' W 074°02'2 4.4
2017-Nov-14 22:30N 40°41' W 074°01'1 2.7
2017-Nov-14 22:00N 40°42' W 074°00'3 6.9
2017-Nov-14 21:31N 40°39' W 074°02'2 4.3
2017-Nov-14 21:00N 40°41' W 074°01'1 2.6
2017-Nov-14 20:31N 40°42' W 074°00'1 2.7
2017-Nov-14 20:00N 40°41' W 074°01'2 4.2
2017-Nov-14 19:31N 40°39' W 074°02'4 7.3
2017-Nov-14 19:01N 40°42' W 073°60'1 1.1
2017-Nov-14 18:31N 40°42' W 074°00'4 7.4
2017-Nov-14 18:00N 40°38' W 074°02'4 7.0
2017-Nov-14 17:30N 40°42' W 074°00'1 1.3
2017-Nov-14 17:00N 40°42' W 074°00'3 6.5
2017-Nov-14 16:30N 40°39' W 074°02'2 4.1
2017-Nov-14 16:01N 40°41' W 074°01'1 2.4
2017-Nov-14 15:30N 40°42' W 074°00'0 0.7
2017-Nov-14 15:01N 40°42' W 074°00'4 7.6
2017-Nov-14 14:30N 40°38' W 074°02'4 7.1
2017-Nov-14 14:00N 40°42' W 074°00'0 0.0
2017-Nov-14 13:31N 40°42' W 074°00'4 7.1
2017-Nov-14 13:01N 40°38' W 074°02'4 7.1
2017-Nov-14 12:30N 40°42' W 074°00'0 0.2
2017-Nov-14 12:01N 40°42' W 074°00'4 7.1
2017-Nov-14 11:30N 40°38' W 074°02'5 9.4
2017-Nov-14 11:00N 40°42' W 073°58'0 0.0
2017-Nov-14 10:30N 40°42' W 073°58'0 0.0
2017-Nov-14 04:02N 40°42' W 073°58'0 7.0
2017-Nov-14 04:01N 40°42' W 073°59'4 8.5
2017-Nov-14 03:30N 40°39' W 074°02'4 7.4
2017-Nov-14 03:00N 40°42' W 073°60'1 1.5
2017-Nov-14 02:30N 40°42' W 074°00'4 7.1
2017-Nov-14 02:01N 40°38' W 074°02'4 7.1
2017-Nov-14 01:30N 40°42' W 074°00'1 1.5
2017-Nov-14 01:01N 40°42' W 073°60'4 7.1
2017-Nov-14 00:30N 40°39' W 074°02'2 4.1
2017-Nov-14 00:01N 40°41' W 074°01'1 2.7
2017-Nov-13 23:31N 40°42' W 074°00'4 7.0
2017-Nov-13 23:00N 40°39' W 074°02'2 4.6
2017-Nov-13 22:30N 40°41' W 074°01'1 2.5
2017-Nov-13 22:01N 40°42' W 074°00'1 0.1
2017-Nov-13 02:01N 40°41' W 074°01'2 4.5
2017-Nov-13 01:30N 40°39' W 074°02'3 6.6
2017-Nov-13 01:01N 40°42' W 074°00'1 1.7
2017-Nov-13 00:31N 40°41' W 074°01'3 6.0
2017-Nov-13 00:01N 40°38' W 074°02'3 6.1
2017-Nov-12 23:31N 40°41' W 074°01'1 2.4
2017-Nov-12 23:00N 40°42' W 073°60'4 7.4
2017-Nov-12 22:30N 40°39' W 074°02'2 4.2
2017-Nov-12 22:01N 40°41' W 074°01'1 2.9
2017-Nov-12 21:31N 40°42' W 074°00'1 2.7
2017-Nov-12 21:01N 40°41' W 074°01'1 2.9
2017-Nov-12 20:30N 40°40' W 074°02'3 6.1
2017-Nov-12 20:01N 40°42' W 073°60'0 0.9
2017-Nov-12 19:30N 40°42' W 074°00'2 3.1
2017-Nov-12 19:00N 40°42' W 073°58'0 0.0
2017-Nov-11 15:55N 40°42' W 073°58'1 2.6
2017-Nov-11 15:30N 40°42' W 073°60'4 7.4
2017-Nov-11 15:00N 40°39' W 074°02'2 4.7
2017-Nov-11 14:31N 40°41' W 074°01'1 2.4
2017-Nov-11 14:01N 40°42' W 074°00'2 3.6
2017-Nov-11 13:31N 40°41' W 074°01'2 3.6
2017-Nov-11 13:01N 40°39' W 074°02'4 7.3
2017-Nov-11 12:30N 40°42' W 073°60'1 2.7
2017-Nov-11 12:00N 40°41' W 074°01'3 5.8
2017-Nov-11 11:31N 40°38' W 074°02'5 9.4
2017-Nov-11 11:00N 40°42' W 073°58'0 0.0
2017-Nov-11 10:31N 40°42' W 073°58'0 0.0
2017-Nov-11 03:47N 40°42' W 073°58'2 5.8
2017-Nov-11 03:31N 40°42' W 074°00'4 8.1
2017-Nov-11 03:00N 40°45' W 073°57'0 0.3
2017-Nov-11 02:30N 40°46' W 073°57'4 7.6
2017-Nov-11 02:00N 40°42' W 073°60'3 6.3
2017-Nov-11 01:30N 40°45' W 073°57'2 3.4
2017-Nov-11 01:00N 40°46' W 073°56'2 4.8
2017-Nov-11 00:31N 40°44' W 073°58'0 0.2
2017-Nov-11 00:00N 40°45' W 073°58'2 4.7
2017-Nov-10 23:30N 40°46' W 073°56'2 3.5
2017-Nov-10 23:00N 40°45' W 073°57'3 6.2
2017-Nov-10 22:31N 40°42' W 073°60'4 7.3
2017-Nov-10 22:00N 40°45' W 073°57'0 0.3
2017-Nov-10 21:30N 40°46' W 073°57'4 7.6
2017-Nov-10 21:00N 40°42' W 073°60'3 6.2
2017-Nov-10 20:30N 40°45' W 073°57'2 3.4
2017-Nov-10 20:00N 40°46' W 073°56'2 4.6
2017-Nov-10 19:30N 40°45' W 073°58'0 0.1
2017-Nov-10 19:01N 40°45' W 073°58'2 4.3
2017-Nov-10 18:29N 40°46' W 073°56'2 3.5
2017-Nov-10 18:00N 40°45' W 073°57'3 6.8
2017-Nov-10 17:31N 40°42' W 074°00'4 8.4
2017-Nov-10 17:00N 40°46' W 073°57'0 0.4
2017-Nov-10 16:30N 40°45' W 073°57'4 7.1
2017-Nov-10 16:00N 40°42' W 073°59'3 5.8
2017-Nov-10 15:30N 40°45' W 073°57'2 3.3
2017-Nov-10 15:00N 40°46' W 073°56'1 1.2
2017-Nov-10 14:30N 40°46' W 073°57'3 5.3
2017-Nov-10 14:01N 40°44' W 073°58'1 2.4
2017-Nov-10 13:31N 40°45' W 073°58'2 4.2
2017-Nov-10 13:00N 40°46' W 073°56'2 4.0
2017-Nov-10 12:31N 40°45' W 073°58'0 0.9
2017-Nov-10 12:00N 40°44' W 073°58'2 4.8
2017-Nov-10 11:30N 40°46' W 073°56'5 9.2
2017-Nov-10 11:00N 40°42' W 073°58'0 0.0
2017-Nov-10 04:07N 40°42' W 073°58'0 0.0
2017-Nov-10 04:00N 40°42' W 073°58'4 8.2
2017-Nov-10 03:31N 40°39' W 074°02'4 7.3
2017-Nov-10 03:00N 40°42' W 073°60'1 1.1
2017-Nov-10 02:31N 40°42' W 074°00'3 6.3
2017-Nov-10 02:00N 40°39' W 074°02'3 5.9
2017-Nov-10 01:30N 40°42' W 074°00'1 1.3
2017-Nov-10 01:00N 40°42' W 074°00'3 7.0
2017-Nov-10 00:30N 40°39' W 074°02'2 4.4
2017-Nov-10 00:00N 40°41' W 074°01'1 2.7
2017-Nov-09 23:31N 40°42' W 073°60'4 7.1
2017-Nov-09 23:00N 40°39' W 074°02'2 4.5
2017-Nov-09 22:30N 40°41' W 074°01'1 2.6
2017-Nov-09 22:01N 40°42' W 074°00'  

Dump ship's entire track history